Terminal Aerodrome Forecast
Issued by NWS Duluth, MN

Home | Current Version | Previous Version | Text Only | Print | Product List | Glossary On
Versions: 1 2 3 4 5 6 7 8 9 10 11 12 13 14 15 16 17 18 19 20 21 22 23 24 25 26 27 28 29 30
171
FTUS43 KDLH 172356
TAFDLH
TAF
KDLH 172356Z 1800/1824 27004KT P6SM BKN008
     FM180200 24004KT 4SM BR BKN008
     FM180400 24005KT 1SM BR BKN003
      TEMPO 1809/1813 1/2SM FG BKN003
     FM181500 23009KT P6SM BKN006
     FM181700 24011G16KT P6SM BKN015
     FM182300 24011G16KT 5SM -SN OVC023=

USA.gov is the U.S. government's official web portal to all federal, state and local government web resources and services.